sensor_id;sensor_type;location;lat;lon;timestamp;pressure;altitude;pressure_sealevel;temperature
62611;BMP280;48683;48.084;17.272;2022-09-29T00:02:19;98852.94;;;13.37
62611;BMP280;48683;48.084;17.272;2022-09-29T00:04:44;98854.03;;;13.39
62611;BMP280;48683;48.084;17.272;2022-09-29T00:07:10;98850.13;;;13.40
62611;BMP280;48683;48.084;17.272;2022-09-29T00:09:35;98856.66;;;13.30
62611;BMP280;48683;48.084;17.272;2022-09-29T00:12:00;98860.28;;;13.36
62611;BMP280;48683;48.084;17.272;2022-09-29T00:14:26;98861.34;;;13.39
62611;BMP280;48683;48.084;17.272;2022-09-29T00:16:51;98837.56;;;13.24
62611;BMP280;48683;48.084;17.272;2022-09-29T00:19:17;98860.50;;;13.42
62611;BMP280;48683;48.084;17.272;2022-09-29T00:21:43;98868.47;;;13.45
62611;BMP280;48683;48.084;17.272;2022-09-29T00:24:09;98869.44;;;13.39
62611;BMP280;48683;48.084;17.272;2022-09-29T00:26:34;98886.31;;;13.52
62611;BMP280;48683;48.084;17.272;2022-09-29T00:29:00;98878.78;;;13.47
62611;BMP280;48683;48.084;17.272;2022-09-29T00:31:28;98882.25;;;13.47
62611;BMP280;48683;48.084;17.272;2022-09-29T00:33:55;98885.38;;;13.46
62611;BMP280;48683;48.084;17.272;2022-09-29T00:36:21;98897.22;;;13.48
62611;BMP280;48683;48.084;17.272;2022-09-29T00:38:48;98877.84;;;13.41
62611;BMP280;48683;48.084;17.272;2022-09-29T00:41:17;98864.84;;;13.26
62611;BMP280;48683;48.084;17.272;2022-09-29T00:43:50;98888.09;;;13.33
62611;BMP280;48683;48.084;17.272;2022-09-29T00:46:18;98895.00;;;13.34
62611;BMP280;48683;48.084;17.272;2022-09-29T00:48:46;98898.66;;;13.40
62611;BMP280;48683;48.084;17.272;2022-09-29T00:51:12;98896.19;;;13.33
62611;BMP280;48683;48.084;17.272;2022-09-29T00:53:39;98888.88;;;13.34
62611;BMP280;48683;48.084;17.272;2022-09-29T00:56:08;98888.97;;;13.30
62611;BMP280;48683;48.084;17.272;2022-09-29T00:58:43;98895.13;;;13.30
62611;BMP280;48683;48.084;17.272;2022-09-29T01:01:11;98901.25;;;13.31
62611;BMP280;48683;48.084;17.272;2022-09-29T01:03:40;98891.78;;;13.26
62611;BMP280;48683;48.084;17.272;2022-09-29T01:06:39;98898.56;;;13.31
62611;BMP280;48683;48.084;17.272;2022-09-29T01:09:10;98903.41;;;13.23
62611;BMP280;48683;48.084;17.272;2022-09-29T01:11:36;98923.66;;;13.28
62611;BMP280;48683;48.084;17.272;2022-09-29T01:14:04;98925.81;;;13.33
62611;BMP280;48683;48.084;17.272;2022-09-29T01:16:35;98940.38;;;13.36
62611;BMP280;48683;48.084;17.272;2022-09-29T01:19:09;98936.72;;;13.29
62611;BMP280;48683;48.084;17.272;2022-09-29T01:21:49;98935.63;;;13.27
62611;BMP280;48683;48.084;17.272;2022-09-29T01:35:42;98930.00;;;12.96
62611;BMP280;48683;48.084;17.272;2022-09-29T01:40:50;98938.66;;;12.91
62611;BMP280;48683;48.084;17.272;2022-09-29T01:43:45;98951.56;;;12.96
62611;BMP280;48683;48.084;17.272;2022-09-29T01:46:29;98949.53;;;12.88
62611;BMP280;48683;48.084;17.272;2022-09-29T01:48:57;98951.22;;;12.81
62611;BMP280;48683;48.084;17.272;2022-09-29T01:51:43;98946.72;;;12.78
62611;BMP280;48683;48.084;17.272;2022-09-29T01:54:14;98948.00;;;12.74
62611;BMP280;48683;48.084;17.272;2022-09-29T01:56:52;98945.94;;;12.65
62611;BMP280;48683;48.084;17.272;2022-09-29T01:59:30;98945.94;;;12.65
62611;BMP280;48683;48.084;17.272;2022-09-29T02:01:57;98949.72;;;12.68
62611;BMP280;48683;48.084;17.272;2022-09-29T02:04:47;98948.63;;;12.65
62611;BMP280;48683;48.084;17.272;2022-09-29T02:07:21;98950.03;;;12.70
62611;BMP280;48683;48.084;17.272;2022-09-29T02:09:57;98945.06;;;12.68
62611;BMP280;48683;48.084;17.272;2022-09-29T02:12:26;98950.56;;;12.65
62611;BMP280;48683;48.084;17.272;2022-09-29T02:14:55;98939.38;;;12.66
62611;BMP280;48683;48.084;17.272;2022-09-29T02:17:25;98945.72;;;12.72
62611;BMP280;48683;48.084;17.272;2022-09-29T02:19:53;98942.81;;;12.67
62611;BMP280;48683;48.084;17.272;2022-09-29T02:22:19;98954.13;;;12.74
62611;BMP280;48683;48.084;17.272;2022-09-29T02:24:45;98959.19;;;12.85
62611;BMP280;48683;48.084;17.272;2022-09-29T02:27:11;98956.28;;;12.92
62611;BMP280;48683;48.084;17.272;2022-09-29T02:29:37;98958.25;;;12.92
62611;BMP280;48683;48.084;17.272;2022-09-29T02:32:04;98956.28;;;12.92
62611;BMP280;48683;48.084;17.272;2022-09-29T02:34:34;98950.25;;;12.88
62611;BMP280;48683;48.084;17.272;2022-09-29T02:42:39;98951.78;;;13.02
62611;BMP280;48683;48.084;17.272;2022-09-29T02:56:40;98968.91;;;12.95
62611;BMP280;48683;48.084;17.272;2022-09-29T02:59:14;98975.78;;;12.96
62611;BMP280;48683;48.084;17.272;2022-09-29T03:01:51;98976.13;;;12.98
62611;BMP280;48683;48.084;17.272;2022-09-29T03:04:19;98968.06;;;12.98
62611;BMP280;48683;48.084;17.272;2022-09-29T03:06:44;98978.81;;;12.85
62611;BMP280;48683;48.084;17.272;2022-09-29T03:09:10;98989.44;;;12.76
62611;BMP280;48683;48.084;17.272;2022-09-29T03:11:35;98976.75;;;12.64
62611;BMP280;48683;48.084;17.272;2022-09-29T03:14:01;98984.50;;;12.75
62611;BMP280;48683;48.084;17.272;2022-09-29T03:16:27;98959.94;;;12.60
62611;BMP280;48683;48.084;17.272;2022-09-29T03:18:52;98964.97;;;12.58
62611;BMP280;48683;48.084;17.272;2022-09-29T03:21:17;98961.22;;;12.56
62611;BMP280;48683;48.084;17.272;2022-09-29T03:23:43;98964.00;;;12.65
62611;BMP280;48683;48.084;17.272;2022-09-29T03:26:08;98966.84;;;12.74
62611;BMP280;48683;48.084;17.272;2022-09-29T03:28:34;98950.03;;;12.70
62611;BMP280;48683;48.084;17.272;2022-09-29T03:31:04;98958.44;;;12.72
62611;BMP280;48683;48.084;17.272;2022-09-29T03:33:30;98950.75;;;12.58
62611;BMP280;48683;48.084;17.272;2022-09-29T03:35:56;98948.63;;;12.53
62611;BMP280;48683;48.084;17.272;2022-09-29T03:38:21;98975.13;;;12.67
62611;BMP280;48683;48.084;17.272;2022-09-29T03:40:46;98969.19;;;12.59
62611;BMP280;48683;48.084;17.272;2022-09-29T03:43:12;98978.13;;;12.69
62611;BMP280;48683;48.084;17.272;2022-09-29T03:45:37;98973.38;;;12.60
62611;BMP280;48683;48.084;17.272;2022-09-29T03:48:11;98977.47;;;12.65
62611;BMP280;48683;48.084;17.272;2022-09-29T03:50:36;98953.56;;;12.54
62611;BMP280;48683;48.084;17.272;2022-09-29T03:53:02;98980.81;;;12.69
62611;BMP280;48683;48.084;17.272;2022-09-29T03:55:27;98981.47;;;12.73
62611;BMP280;48683;48.084;17.272;2022-09-29T03:57:52;98984.16;;;12.73
62611;BMP280;48683;48.084;17.272;2022-09-29T04:00:18;98990.66;;;12.75
62611;BMP280;48683;48.084;17.272;2022-09-29T04:02:43;98988.06;;;12.72
62611;BMP280;48683;48.084;17.272;2022-09-29T04:05:08;98985.38;;;12.72
62611;BMP280;48683;48.084;17.272;2022-09-29T04:07:34;98969.72;;;12.67
62611;BMP280;48683;48.084;17.272;2022-09-29T04:09:59;98972.44;;;12.67
62611;BMP280;48683;48.084;17.272;2022-09-29T04:12:24;98973.59;;;12.66
62611;BMP280;48683;48.084;17.272;2022-09-29T04:14:50;98978.13;;;12.69
62611;BMP280;48683;48.084;17.272;2022-09-29T04:17:15;98980.25;;;12.61
62611;BMP280;48683;48.084;17.272;2022-09-29T04:19:40;98986.97;;;12.69
62611;BMP280;48683;48.084;17.272;2022-09-29T04:22:06;98999.03;;;12.77
62611;BMP280;48683;48.084;17.272;2022-09-29T04:24:31;98975.53;;;12.65
62611;BMP280;48683;48.084;17.272;2022-09-29T04:26:57;98991.63;;;12.81
62611;BMP280;48683;48.084;17.272;2022-09-29T04:29:22;98963.66;;;12.50
62611;BMP280;48683;48.084;17.272;2022-09-29T04:31:47;98985.13;;;12.66
62611;BMP280;48683;48.084;17.272;2022-09-29T04:34:13;98982.75;;;12.68
62611;BMP280;48683;48.084;17.272;2022-09-29T04:36:38;98973.16;;;12.55
62611;BMP280;48683;48.084;17.272;2022-09-29T04:39:03;98985.13;;;12.66
62611;BMP280;48683;48.084;17.272;2022-09-29T04:41:29;98994.06;;;12.63
62611;BMP280;48683;48.084;17.272;2022-09-29T04:43:58;99008.72;;;12.75
62611;BMP280;48683;48.084;17.272;2022-09-29T04:46:24;99003.88;;;12.70
62611;BMP280;48683;48.084;17.272;2022-09-29T04:48:49;98999.25;;;12.70
62611;BMP280;48683;48.084;17.272;2022-09-29T04:51:15;98994.63;;;12.71
62611;BMP280;48683;48.084;17.272;2022-09-29T04:53:40;99000.31;;;12.73
62611;BMP280;48683;48.084;17.272;2022-09-29T04:56:07;98992.88;;;12.64
62611;BMP280;48683;48.084;17.272;2022-09-29T04:58:32;98995.25;;;12.62
62611;BMP280;48683;48.084;17.272;2022-09-29T05:01:09;99009.66;;;12.68
62611;BMP280;48683;48.084;17.272;2022-09-29T05:03:34;99004.28;;;12.68
62611;BMP280;48683;48.084;17.272;2022-09-29T05:06:00;99006.41;;;12.61
62611;BMP280;48683;48.084;17.272;2022-09-29T05:08:25;99002.56;;;12.62
62611;BMP280;48683;48.084;17.272;2022-09-29T05:10:51;98987.16;;;12.62
62611;BMP280;48683;48.084;17.272;2022-09-29T05:13:16;98991.69;;;12.53
62611;BMP280;48683;48.084;17.272;2022-09-29T05:15:41;98996.91;;;12.44
62611;BMP280;48683;48.084;17.272;2022-09-29T05:18:07;98993.72;;;12.49
62611;BMP280;48683;48.084;17.272;2022-09-29T05:20:32;99002.44;;;12.53
62611;BMP280;48683;48.084;17.272;2022-09-29T05:22:58;99008.38;;;12.60
62611;BMP280;48683;48.084;17.272;2022-09-29T05:25:25;99004.53;;;12.45
62611;BMP280;48683;48.084;17.272;2022-09-29T05:27:51;98995.25;;;12.33
62611;BMP280;48683;48.084;17.272;2022-09-29T05:30:16;98980.91;;;12.24
62611;BMP280;48683;48.084;17.272;2022-09-29T05:32:42;98988.38;;;12.32
62611;BMP280;48683;48.084;17.272;2022-09-29T05:35:08;98983.19;;;12.25
62611;BMP280;48683;48.084;17.272;2022-09-29T05:37:34;98973.34;;;12.19
62611;BMP280;48683;48.084;17.272;2022-09-29T05:39:59;98972.50;;;12.22
62611;BMP280;48683;48.084;17.272;2022-09-29T05:42:25;98975.72;;;12.17
62611;BMP280;48683;48.084;17.272;2022-09-29T05:44:51;98989.31;;;12.26
62611;BMP280;48683;48.084;17.272;2022-09-29T05:47:17;98984.09;;;12.19
62611;BMP280;48683;48.084;17.272;2022-09-29T05:49:42;99003.75;;;12.32
62611;BMP280;48683;48.084;17.272;2022-09-29T05:52:07;99014.06;;;12.33
62611;BMP280;48683;48.084;17.272;2022-09-29T05:54:33;99001.78;;;12.20
62611;BMP280;48683;48.084;17.272;2022-09-29T05:56:58;99002.94;;;12.19
62611;BMP280;48683;48.084;17.272;2022-09-29T05:59:23;99027.63;;;12.30
62611;BMP280;48683;48.084;17.272;2022-09-29T06:01:49;99020.13;;;12.37
62611;BMP280;48683;48.084;17.272;2022-09-29T06:04:15;99036.19;;;12.41
62611;BMP280;48683;48.084;17.272;2022-09-29T06:06:42;99032.91;;;12.33
62611;BMP280;48683;48.084;17.272;2022-09-29T06:09:07;99020.41;;;12.27
62611;BMP280;48683;48.084;17.272;2022-09-29T06:11:33;99025.69;;;12.30
62611;BMP280;48683;48.084;17.272;2022-09-29T06:14:00;99013.41;;;12.29
62611;BMP280;48683;48.084;17.272;2022-09-29T06:16:27;99015.28;;;12.32
62611;BMP280;48683;48.084;17.272;2022-09-29T06:18:53;99018.47;;;12.27
62611;BMP280;48683;48.084;17.272;2022-09-29T06:21:24;99021.84;;;12.31
62611;BMP280;48683;48.084;17.272;2022-09-29T06:23:50;99028.13;;;12.41
62611;BMP280;48683;48.084;17.272;2022-09-29T06:26:17;99017.63;;;12.30
62611;BMP280;48683;48.084;17.272;2022-09-29T06:28:43;99007.47;;;12.22
62611;BMP280;48683;48.084;17.272;2022-09-29T06:31:20;99015.47;;;12.25
62611;BMP280;48683;48.084;17.272;2022-09-29T06:33:46;99009.34;;;12.25
62611;BMP280;48683;48.084;17.272;2022-09-29T06:36:16;99029.72;;;12.38
62611;BMP280;48683;48.084;17.272;2022-09-29T06:39:01;99020.38;;;12.43
62611;BMP280;48683;48.084;17.272;2022-09-29T06:41:27;99024.59;;;12.57
62611;BMP280;48683;48.084;17.272;2022-09-29T06:43:53;99021.44;;;12.46
62611;BMP280;48683;48.084;17.272;2022-09-29T06:46:19;99030.56;;;12.64
62611;BMP280;48683;48.084;17.272;2022-09-29T06:48:45;99025.91;;;12.65
62611;BMP280;48683;48.084;17.272;2022-09-29T06:51:10;99026.25;;;12.67
62611;BMP280;48683;48.084;17.272;2022-09-29T06:53:36;99034.66;;;12.69
62611;BMP280;48683;48.084;17.272;2022-09-29T06:56:02;99027.59;;;12.75
62611;BMP280;48683;48.084;17.272;2022-09-29T06:58:28;99030.28;;;12.75
62611;BMP280;48683;48.084;17.272;2022-09-29T07:00:53;99024.44;;;12.64
62611;BMP280;48683;48.084;17.272;2022-09-29T07:03:19;99039.44;;;12.77
62611;BMP280;48683;48.084;17.272;2022-09-29T07:05:45;99031.78;;;12.76
62611;BMP280;48683;48.084;17.272;2022-09-29T07:08:10;99042.03;;;12.81
62611;BMP280;48683;48.084;17.272;2022-09-29T07:10:35;99044.19;;;12.86
62611;BMP280;48683;48.084;17.272;2022-09-29T07:13:01;99048.72;;;12.89
62611;BMP280;48683;48.084;17.272;2022-09-29T07:15:26;99046.78;;;12.90
62611;BMP280;48683;48.084;17.272;2022-09-29T07:17:56;99040.63;;;12.89
62611;BMP280;48683;48.084;17.272;2022-09-29T07:20:24;99054.66;;;12.97
62611;BMP280;48683;48.084;17.272;2022-09-29T07:22:50;99065.56;;;13.06
62611;BMP280;48683;48.084;17.272;2022-09-29T07:25:15;99063.34;;;13.17
62611;BMP280;48683;48.084;17.272;2022-09-29T07:27:41;99060.88;;;13.22
62611;BMP280;48683;48.084;17.272;2022-09-29T07:30:07;99053.97;;;13.21
62611;BMP280;48683;48.084;17.272;2022-09-29T07:32:32;99050.41;;;13.24
62611;BMP280;48683;48.084;17.272;2022-09-29T07:34:58;99055.38;;;13.39
62611;BMP280;48683;48.084;17.272;2022-09-29T07:37:24;99053.13;;;13.50
62611;BMP280;48683;48.084;17.272;2022-09-29T07:39:50;99046.25;;;13.61
62611;BMP280;48683;48.084;17.272;2022-09-29T07:42:16;99051.81;;;13.79
62611;BMP280;48683;48.084;17.272;2022-09-29T07:44:42;99043.97;;;13.72
62611;BMP280;48683;48.084;17.272;2022-09-29T07:47:08;99063.00;;;14.03
62611;BMP280;48683;48.084;17.272;2022-09-29T07:49:33;99047.25;;;14.02
62611;BMP280;48683;48.084;17.272;2022-09-29T07:51:59;99047.34;;;14.11
62611;BMP280;48683;48.084;17.272;2022-09-29T07:54:24;99060.44;;;14.34
62611;BMP280;48683;48.084;17.272;2022-09-29T07:56:50;99061.44;;;14.27
62611;BMP280;48683;48.084;17.272;2022-09-29T07:59:15;99049.78;;;14.18
62611;BMP280;48683;48.084;17.272;2022-09-29T08:01:40;99058.63;;;14.31
62611;BMP280;48683;48.084;17.272;2022-09-29T08:04:06;99065.94;;;14.43
62611;BMP280;48683;48.084;17.272;2022-09-29T08:06:31;99058.16;;;14.33
62611;BMP280;48683;48.084;17.272;2022-09-29T08:08:59;99060.84;;;14.45
62611;BMP280;48683;48.084;17.272;2022-09-29T08:11:25;99057.84;;;14.43
62611;BMP280;48683;48.084;17.272;2022-09-29T08:13:51;99056.16;;;14.58
62611;BMP280;48683;48.084;17.272;2022-09-29T08:16:17;99071.09;;;14.72
62611;BMP280;48683;48.084;17.272;2022-09-29T08:18:42;99065.16;;;14.77
62611;BMP280;48683;48.084;17.272;2022-09-29T08:21:10;99066.47;;;14.72
62611;BMP280;48683;48.084;17.272;2022-09-29T08:23:37;99046.97;;;14.56
62611;BMP280;48683;48.084;17.272;2022-09-29T08:26:11;99035.81;;;14.66
62611;BMP280;48683;48.084;17.272;2022-09-29T08:28:38;99055.09;;;14.78
62611;BMP280;48683;48.084;17.272;2022-09-29T08:31:09;99071.28;;;14.99
62611;BMP280;48683;48.084;17.272;2022-09-29T08:33:35;99058.66;;;14.96
62611;BMP280;48683;48.084;17.272;2022-09-29T08:36:02;99071.09;;;15.15
62611;BMP280;48683;48.084;17.272;2022-09-29T08:38:41;99069.09;;;15.38
62611;BMP280;48683;48.084;17.272;2022-09-29T08:41:29;99062.84;;;15.50
62611;BMP280;48683;48.084;17.272;2022-09-29T08:44:09;99057.66;;;15.34
62611;BMP280;48683;48.084;17.272;2022-09-29T08:46:39;99050.97;;;15.47
62611;BMP280;48683;48.084;17.272;2022-09-29T08:49:14;99039.34;;;15.38
62611;BMP280;48683;48.084;17.272;2022-09-29T08:52:05;99049.09;;;15.35
62611;BMP280;48683;48.084;17.272;2022-09-29T08:54:37;99032.56;;;15.33
62611;BMP280;48683;48.084;17.272;2022-09-29T08:57:05;99030.19;;;15.35
62611;BMP280;48683;48.084;17.272;2022-09-29T08:59:30;99036.34;;;15.36
62611;BMP280;48683;48.084;17.272;2022-09-29T09:07:15;99049.06;;;15.57
62611;BMP280;48683;48.084;17.272;2022-09-29T09:10:02;99063.94;;;15.52
62611;BMP280;48683;48.084;17.272;2022-09-29T09:16:10;99056.38;;;15.47
62611;BMP280;48683;48.084;17.272;2022-09-29T09:19:11;99073.66;;;15.50
62611;BMP280;48683;48.084;17.272;2022-09-29T09:21:43;99071.34;;;15.70
62611;BMP280;48683;48.084;17.272;2022-09-29T09:26:42;99072.25;;;15.76
62611;BMP280;48683;48.084;17.272;2022-09-29T09:29:37;99073.94;;;15.83
62611;BMP280;48683;48.084;17.272;2022-09-29T09:37:20;99063.41;;;15.76
62611;BMP280;48683;48.084;17.272;2022-09-29T09:40:00;99060.97;;;15.68
62611;BMP280;48683;48.084;17.272;2022-09-29T09:42:33;99072.88;;;15.80
62611;BMP280;48683;48.084;17.272;2022-09-29T09:45:10;99070.28;;;15.68
62611;BMP280;48683;48.084;17.272;2022-09-29T09:47:49;99072.25;;;15.76
62611;BMP280;48683;48.084;17.272;2022-09-29T09:50:18;99073.50;;;15.84
62611;BMP280;48683;48.084;17.272;2022-09-29T09:52:47;99064.50;;;15.96
62611;BMP280;48683;48.084;17.272;2022-09-29T09:55:18;99073.41;;;16.15
62611;BMP280;48683;48.084;17.272;2022-09-29T10:00:15;99068.41;;;16.04
62611;BMP280;48683;48.084;17.272;2022-09-29T10:02:53;99077.31;;;16.14
62611;BMP280;48683;48.084;17.272;2022-09-29T10:05:27;99075.69;;;16.26
62611;BMP280;48683;48.084;17.272;2022-09-29T10:07:54;99070.72;;;16.24
62611;BMP280;48683;48.084;17.272;2022-09-29T10:10:23;99070.88;;;16.30
62611;BMP280;48683;48.084;17.272;2022-09-29T10:13:10;99066.81;;;16.25
62611;BMP280;48683;48.084;17.272;2022-09-29T10:18:20;99058.38;;;16.14
62611;BMP280;48683;48.084;17.272;2022-09-29T10:20:47;99058.38;;;16.32
62611;BMP280;48683;48.084;17.272;2022-09-29T10:23:28;99057.94;;;16.25
62611;BMP280;48683;48.084;17.272;2022-09-29T10:26:13;99053.88;;;16.38
62611;BMP280;48683;48.084;17.272;2022-09-29T10:28:44;99047.88;;;16.61
62611;BMP280;48683;48.084;17.272;2022-09-29T10:31:17;99054.16;;;16.86
62611;BMP280;48683;48.084;17.272;2022-09-29T10:34:12;99068.63;;;16.92
62611;BMP280;48683;48.084;17.272;2022-09-29T10:36:52;99063.63;;;16.99
62611;BMP280;48683;48.084;17.272;2022-09-29T10:39:44;99071.34;;;16.74
62611;BMP280;48683;48.084;17.272;2022-09-29T10:42:20;99045.91;;;16.44
62611;BMP280;48683;48.084;17.272;2022-09-29T10:44:51;99067.13;;;16.36
62611;BMP280;48683;48.084;17.272;2022-09-29T10:47:18;99068.22;;;16.57
62611;BMP280;48683;48.084;17.272;2022-09-29T10:49:44;99071.78;;;16.90
62611;BMP280;48683;48.084;17.272;2022-09-29T10:52:26;99071.88;;;17.23
62611;BMP280;48683;48.084;17.272;2022-09-29T10:55:00;99067.38;;;17.02
62611;BMP280;48683;48.084;17.272;2022-09-29T10:57:30;99075.63;;;17.17
62611;BMP280;48683;48.084;17.272;2022-09-29T10:59:57;99084.00;;;17.37
62611;BMP280;48683;48.084;17.272;2022-09-29T11:02:32;99067.50;;;17.17
62611;BMP280;48683;48.084;17.272;2022-09-29T11:05:02;99067.84;;;17.00
62611;BMP280;48683;48.084;17.272;2022-09-29T11:07:30;99067.72;;;16.95
62611;BMP280;48683;48.084;17.272;2022-09-29T11:09:57;99074.16;;;16.97
62611;BMP280;48683;48.084;17.272;2022-09-29T11:12:33;99043.97;;;16.81
62611;BMP280;48683;48.084;17.272;2022-09-29T11:15:01;99075.94;;;17.19
62611;BMP280;48683;48.084;17.272;2022-09-29T11:17:30;99080.44;;;17.13
62611;BMP280;48683;48.084;17.272;2022-09-29T11:19:59;99087.47;;;17.37
62611;BMP280;48683;48.084;17.272;2022-09-29T11:25:48;99069.34;;;17.52
62611;BMP280;48683;48.084;17.272;2022-09-29T11:31:08;99063.97;;;17.76
62611;BMP280;48683;48.084;17.272;2022-09-29T11:39:28;99089.75;;;17.81
62611;BMP280;48683;48.084;17.272;2022-09-29T11:42:04;99074.09;;;17.99
62611;BMP280;48683;48.084;17.272;2022-09-29T11:55:08;99060.16;;;17.83
62611;BMP280;48683;48.084;17.272;2022-09-29T12:00:20;99049.03;;;17.81
62611;BMP280;48683;48.084;17.272;2022-09-29T12:03:05;99057.38;;;17.68
62611;BMP280;48683;48.084;17.272;2022-09-29T12:05:43;99058.38;;;17.80
62611;BMP280;48683;48.084;17.272;2022-09-29T12:09:07;99046.59;;;17.83
62611;BMP280;48683;48.084;17.272;2022-09-29T12:16:31;99048.38;;;17.86
62611;BMP280;48683;48.084;17.272;2022-09-29T12:19:10;99043.13;;;17.82
62611;BMP280;48683;48.084;17.272;2022-09-29T12:21:41;99045.91;;;17.73
62611;BMP280;48683;48.084;17.272;2022-09-29T12:24:33;99052.38;;;17.76
62611;BMP280;48683;48.084;17.272;2022-09-29T12:27:05;99050.84;;;17.75
62611;BMP280;48683;48.084;17.272;2022-09-29T12:29:36;99057.72;;;17.61
62611;BMP280;48683;48.084;17.272;2022-09-29T12:32:09;99050.22;;;17.47
62611;BMP280;48683;48.084;17.272;2022-09-29T12:34:52;99056.34;;;17.66
62611;BMP280;48683;48.084;17.272;2022-09-29T12:37:34;99046.09;;;17.70
62611;BMP280;48683;48.084;17.272;2022-09-29T12:40:29;99050.06;;;17.83
62611;BMP280;48683;48.084;17.272;2022-09-29T12:43:14;99048.97;;;17.90
62611;BMP280;48683;48.084;17.272;2022-09-29T12:45:50;99051.84;;;17.86
62611;BMP280;48683;48.084;17.272;2022-09-29T12:48:45;99049.88;;;17.87
62611;BMP280;48683;48.084;17.272;2022-09-29T12:54:02;99055.53;;;17.74
62611;BMP280;48683;48.084;17.272;2022-09-29T12:59:33;99048.91;;;17.75
62611;BMP280;48683;48.084;17.272;2022-09-29T13:02:51;99048.09;;;17.84
62611;BMP280;48683;48.084;17.272;2022-09-29T13:21:42;99056.91;;;18.41
62611;BMP280;48683;48.084;17.272;2022-09-29T13:25:03;99048.84;;;18.56
62611;BMP280;48683;48.084;17.272;2022-09-29T13:27:34;99047.38;;;18.45
62611;BMP280;48683;48.084;17.272;2022-09-29T13:30:07;99044.75;;;18.51
62611;BMP280;48683;48.084;17.272;2022-09-29T13:32:42;99048.16;;;18.61
62611;BMP280;48683;48.084;17.272;2022-09-29T13:35:17;99042.22;;;18.47
62611;BMP280;48683;48.084;17.272;2022-09-29T13:37:51;99043.56;;;18.52
62611;BMP280;48683;48.084;17.272;2022-09-29T13:40:25;99047.13;;;18.58
62611;BMP280;48683;48.084;17.272;2022-09-29T13:42:56;99051.38;;;18.35
62611;BMP280;48683;48.084;17.272;2022-09-29T13:47:57;99066.97;;;18.26
62611;BMP280;48683;48.084;17.272;2022-09-29T13:50:51;99054.47;;;18.05
62611;BMP280;48683;48.084;17.272;2022-09-29T13:58:32;99058.00;;;17.96
62611;BMP280;48683;48.084;17.272;2022-09-29T14:01:00;99044.59;;;17.92
62611;BMP280;48683;48.084;17.272;2022-09-29T14:03:33;99060.88;;;18.16
62611;BMP280;48683;48.084;17.272;2022-09-29T14:14:07;99056.53;;;18.10
62611;BMP280;48683;48.084;17.272;2022-09-29T14:27:34;99074.44;;;17.92
62611;BMP280;48683;48.084;17.272;2022-09-29T14:35:15;99069.19;;;17.89
62611;BMP280;48683;48.084;17.272;2022-09-29T14:37:42;99076.59;;;17.88
62611;BMP280;48683;48.084;17.272;2022-09-29T14:40:08;99067.72;;;17.79
62611;BMP280;48683;48.084;17.272;2022-09-29T15:00:52;99076.41;;;17.59
62611;BMP280;48683;48.084;17.272;2022-09-29T15:03:28;99083.34;;;17.51
62611;BMP280;48683;48.084;17.272;2022-09-29T15:06:26;99090.00;;;17.50
62611;BMP280;48683;48.084;17.272;2022-09-29T15:09:16;99099.34;;;17.49
62611;BMP280;48683;48.084;17.272;2022-09-29T15:11:44;99090.22;;;17.28
62611;BMP280;48683;48.084;17.272;2022-09-29T15:14:28;99098.34;;;17.28
62611;BMP280;48683;48.084;17.272;2022-09-29T15:27:26;99112.53;;;17.23
62611;BMP280;48683;48.084;17.272;2022-09-29T15:29:55;99103.81;;;17.19
62611;BMP280;48683;48.084;17.272;2022-09-29T15:32:29;99110.44;;;17.18
62611;BMP280;48683;48.084;17.272;2022-09-29T15:35:02;99119.00;;;17.17
62611;BMP280;48683;48.084;17.272;2022-09-29T15:40:13;99131.06;;;17.16
62611;BMP280;48683;48.084;17.272;2022-09-29T15:42:39;99118.44;;;17.03
62611;BMP280;48683;48.084;17.272;2022-09-29T15:45:14;99122.03;;;17.00
62611;BMP280;48683;48.084;17.272;2022-09-29T15:47:40;99125.81;;;16.94
62611;BMP280;48683;48.084;17.272;2022-09-29T15:50:18;99116.34;;;16.89
62611;BMP280;48683;48.084;17.272;2022-09-29T15:52:44;99112.88;;;16.89
62611;BMP280;48683;48.084;17.272;2022-09-29T15:55:14;99124.47;;;16.89
62611;BMP280;48683;48.084;17.272;2022-09-29T15:57:41;99117.41;;;16.92
62611;BMP280;48683;48.084;17.272;2022-09-29T16:03:22;99136.38;;;16.92
62611;BMP280;48683;48.084;17.272;2022-09-29T16:06:00;99135.78;;;16.88
62611;BMP280;48683;48.084;17.272;2022-09-29T16:08:27;99130.03;;;16.86
62611;BMP280;48683;48.084;17.272;2022-09-29T16:11:05;99133.94;;;16.85
62611;BMP280;48683;48.084;17.272;2022-09-29T16:13:35;99124.00;;;16.82
62611;BMP280;48683;48.084;17.272;2022-09-29T16:16:13;99135.00;;;16.78
62611;BMP280;48683;48.084;17.272;2022-09-29T16:18:45;99123.28;;;16.72
62611;BMP280;48683;48.084;17.272;2022-09-29T16:21:15;99133.66;;;16.65
62611;BMP280;48683;48.084;17.272;2022-09-29T16:23:50;99139.03;;;16.55
62611;BMP280;48683;48.084;17.272;2022-09-29T16:26:38;99148.25;;;16.58
62611;BMP280;48683;48.084;17.272;2022-09-29T16:31:34;99147.16;;;16.55
62611;BMP280;48683;48.084;17.272;2022-09-29T16:34:00;99143.56;;;16.49
62611;BMP280;48683;48.084;17.272;2022-09-29T16:36:33;99141.25;;;16.39
62611;BMP280;48683;48.084;17.272;2022-09-29T16:39:02;99152.09;;;16.39
62611;BMP280;48683;48.084;17.272;2022-09-29T16:41:32;99159.78;;;16.40
62611;BMP280;48683;48.084;17.272;2022-09-29T16:46:28;99160.94;;;16.30
62611;BMP280;48683;48.084;17.272;2022-09-29T16:48:54;99164.41;;;16.22
62611;BMP280;48683;48.084;17.272;2022-09-29T16:51:21;99155.22;;;16.19
62611;BMP280;48683;48.084;17.272;2022-09-29T16:53:48;99152.97;;;16.18
62611;BMP280;48683;48.084;17.272;2022-09-29T16:56:16;99164.09;;;16.20
62611;BMP280;48683;48.084;17.272;2022-09-29T16:58:45;99155.81;;;16.14
62611;BMP280;48683;48.084;17.272;2022-09-29T17:01:25;99162.44;;;16.13
62611;BMP280;48683;48.084;17.272;2022-09-29T17:03:50;99160.28;;;16.08
62611;BMP280;48683;48.084;17.272;2022-09-29T17:06:16;99155.34;;;16.06
62611;BMP280;48683;48.084;17.272;2022-09-29T17:08:41;99156.34;;;15.91
62611;BMP280;48683;48.084;17.272;2022-09-29T17:11:06;99146.09;;;15.86
62611;BMP280;48683;48.084;17.272;2022-09-29T17:13:34;99158.44;;;15.87